sensor_id;sensor_type;location;lat;lon;timestamp;P1;durP1;ratioP1;P2;durP2;ratioP2
74941;SDS011;63506;49.346;8.798;2022-12-18T00:01:04;16.13;;;13.85;;
74941;SDS011;63506;49.346;8.798;2022-12-18T00:03:39;16.75;;;14.43;;
74941;SDS011;63506;49.346;8.798;2022-12-18T00:06:05;19.23;;;16.00;;
74941;SDS011;63506;49.346;8.798;2022-12-18T00:08:31;18.65;;;15.10;;
74941;SDS011;63506;49.346;8.798;2022-12-18T00:11:08;18.50;;;15.48;;
74941;SDS011;63506;49.346;8.798;2022-12-18T00:13:38;18.95;;;14.95;;
74941;SDS011;63506;49.346;8.798;2022-12-18T00:16:09;19.65;;;14.52;;
74941;SDS011;63506;49.346;8.798;2022-12-18T00:18:42;20.85;;;15.88;;
74941;SDS011;63506;49.346;8.798;2022-12-18T00:21:10;17.48;;;13.93;;
74941;SDS011;63506;49.346;8.798;2022-12-18T00:23:39;16.17;;;14.18;;
74941;SDS011;63506;49.346;8.798;2022-12-18T00:26:07;19.42;;;16.48;;
74941;SDS011;63506;49.346;8.798;2022-12-18T00:28:41;18.05;;;16.05;;
74941;SDS011;63506;49.346;8.798;2022-12-18T00:31:11;17.02;;;15.35;;
74941;SDS011;63506;49.346;8.798;2022-12-18T00:33:42;16.65;;;13.65;;
74941;SDS011;63506;49.346;8.798;2022-12-18T00:36:11;20.67;;;17.13;;
74941;SDS011;63506;49.346;8.798;2022-12-18T00:39:04;20.77;;;16.13;;
74941;SDS011;63506;49.346;8.798;2022-12-18T00:41:35;17.25;;;15.10;;
74941;SDS011;63506;49.346;8.798;2022-12-18T00:44:23;18.30;;;14.98;;
74941;SDS011;63506;49.346;8.798;2022-12-18T00:46:50;16.42;;;14.02;;
74941;SDS011;63506;49.346;8.798;2022-12-18T00:49:17;15.65;;;13.40;;
74941;SDS011;63506;49.346;8.798;2022-12-18T00:51:44;17.63;;;15.20;;
74941;SDS011;63506;49.346;8.798;2022-12-18T00:54:11;16.65;;;14.65;;
74941;SDS011;63506;49.346;8.798;2022-12-18T00:56:38;20.42;;;15.48;;
74941;SDS011;63506;49.346;8.798;2022-12-18T00:59:04;17.38;;;14.40;;
74941;SDS011;63506;49.346;8.798;2022-12-18T01:01:31;17.75;;;15.68;;
74941;SDS011;63506;49.346;8.798;2022-12-18T01:03:59;16.77;;;14.50;;
74941;SDS011;63506;49.346;8.798;2022-12-18T01:06:26;17.55;;;14.32;;
74941;SDS011;63506;49.346;8.798;2022-12-18T01:08:52;19.30;;;14.45;;
74941;SDS011;63506;49.346;8.798;2022-12-18T01:11:19;19.17;;;14.82;;
74941;SDS011;63506;49.346;8.798;2022-12-18T01:13:47;15.13;;;13.45;;
74941;SDS011;63506;49.346;8.798;2022-12-18T01:16:14;19.55;;;14.00;;
74941;SDS011;63506;49.346;8.798;2022-12-18T01:18:42;15.48;;;13.20;;
74941;SDS011;63506;49.346;8.798;2022-12-18T01:21:11;16.38;;;12.60;;
74941;SDS011;63506;49.346;8.798;2022-12-18T01:23:40;16.23;;;12.63;;
74941;SDS011;63506;49.346;8.798;2022-12-18T01:26:07;15.75;;;13.50;;
74941;SDS011;63506;49.346;8.798;2022-12-18T01:28:35;17.27;;;13.20;;
74941;SDS011;63506;49.346;8.798;2022-12-18T01:31:21;17.60;;;14.50;;
74941;SDS011;63506;49.346;8.798;2022-12-18T01:33:47;14.77;;;12.23;;
74941;SDS011;63506;49.346;8.798;2022-12-18T01:36:15;14.23;;;12.70;;
74941;SDS011;63506;49.346;8.798;2022-12-18T01:38:46;19.63;;;15.70;;
74941;SDS011;63506;49.346;8.798;2022-12-18T01:41:13;17.13;;;13.40;;
74941;SDS011;63506;49.346;8.798;2022-12-18T01:48:41;16.30;;;12.98;;
74941;SDS011;63506;49.346;8.798;2022-12-18T01:51:09;17.55;;;14.13;;
74941;SDS011;63506;49.346;8.798;2022-12-18T01:53:41;17.25;;;14.85;;
74941;SDS011;63506;49.346;8.798;2022-12-18T01:56:11;14.10;;;11.38;;
74941;SDS011;63506;49.346;8.798;2022-12-18T01:58:41;14.75;;;11.70;;
74941;SDS011;63506;49.346;8.798;2022-12-18T02:01:09;18.52;;;14.55;;
74941;SDS011;63506;49.346;8.798;2022-12-18T02:03:36;14.32;;;12.35;;
74941;SDS011;63506;49.346;8.798;2022-12-18T02:17:04;15.52;;;12.40;;
74941;SDS011;63506;49.346;8.798;2022-12-18T02:22:39;15.05;;;11.55;;
74941;SDS011;63506;49.346;8.798;2022-12-18T02:25:21;15.50;;;12.77;;
74941;SDS011;63506;49.346;8.798;2022-12-18T02:28:06;14.98;;;13.05;;
74941;SDS011;63506;49.346;8.798;2022-12-18T02:30:39;17.25;;;12.10;;
74941;SDS011;63506;49.346;8.798;2022-12-18T02:33:11;15.32;;;12.48;;
74941;SDS011;63506;49.346;8.798;2022-12-18T02:35:42;15.80;;;11.93;;
74941;SDS011;63506;49.346;8.798;2022-12-18T02:38:11;15.43;;;13.80;;
74941;SDS011;63506;49.346;8.798;2022-12-18T02:40:39;12.00;;;10.95;;
74941;SDS011;63506;49.346;8.798;2022-12-18T02:43:09;14.23;;;11.80;;
74941;SDS011;63506;49.346;8.798;2022-12-18T02:45:47;13.82;;;12.07;;
74941;SDS011;63506;49.346;8.798;2022-12-18T02:48:17;13.48;;;11.57;;
74941;SDS011;63506;49.346;8.798;2022-12-18T02:50:59;12.68;;;11.38;;
74941;SDS011;63506;49.346;8.798;2022-12-18T02:53:39;14.00;;;10.20;;
74941;SDS011;63506;49.346;8.798;2022-12-18T02:58:58;13.95;;;11.43;;
74941;SDS011;63506;49.346;8.798;2022-12-18T03:01:43;14.15;;;10.93;;
74941;SDS011;63506;49.346;8.798;2022-12-18T03:04:26;11.35;;;10.13;;
74941;SDS011;63506;49.346;8.798;2022-12-18T03:07:35;12.52;;;11.32;;
74941;SDS011;63506;49.346;8.798;2022-12-18T03:10:09;17.10;;;10.40;;
74941;SDS011;63506;49.346;8.798;2022-12-18T03:12:45;17.17;;;12.70;;
74941;SDS011;63506;49.346;8.798;2022-12-18T03:15:21;11.25;;;10.05;;
74941;SDS011;63506;49.346;8.798;2022-12-18T03:17:59;12.98;;;10.93;;
74941;SDS011;63506;49.346;8.798;2022-12-18T03:20:33;14.02;;;11.43;;
74941;SDS011;63506;49.346;8.798;2022-12-18T03:23:04;12.82;;;10.80;;
74941;SDS011;63506;49.346;8.798;2022-12-18T03:25:35;13.13;;;10.73;;
74941;SDS011;63506;49.346;8.798;2022-12-18T03:28:08;15.35;;;11.63;;
74941;SDS011;63506;49.346;8.798;2022-12-18T03:30:38;14.48;;;12.65;;
74941;SDS011;63506;49.346;8.798;2022-12-18T03:33:19;14.05;;;10.32;;
74941;SDS011;63506;49.346;8.798;2022-12-18T03:36:05;12.98;;;10.27;;
74941;SDS011;63506;49.346;8.798;2022-12-18T03:38:33;14.70;;;11.55;;
74941;SDS011;63506;49.346;8.798;2022-12-18T03:41:05;10.88;;;9.85;;
74941;SDS011;63506;49.346;8.798;2022-12-18T03:47:41;11.40;;;10.27;;
74941;SDS011;63506;49.346;8.798;2022-12-18T03:50:36;12.77;;;9.52;;
74941;SDS011;63506;49.346;8.798;2022-12-18T03:55:49;11.73;;;10.40;;
74941;SDS011;63506;49.346;8.798;2022-12-18T03:58:19;11.25;;;9.40;;
74941;SDS011;63506;49.346;8.798;2022-12-18T04:00:58;12.85;;;10.10;;
74941;SDS011;63506;49.346;8.798;2022-12-18T04:03:30;14.95;;;11.05;;
74941;SDS011;63506;49.346;8.798;2022-12-18T04:05:58;19.10;;;11.10;;
74941;SDS011;63506;49.346;8.798;2022-12-18T04:08:27;14.43;;;10.68;;
74941;SDS011;63506;49.346;8.798;2022-12-18T04:11:01;14.88;;;11.05;;
74941;SDS011;63506;49.346;8.798;2022-12-18T04:13:37;13.98;;;9.98;;
74941;SDS011;63506;49.346;8.798;2022-12-18T04:16:08;12.35;;;9.63;;
74941;SDS011;63506;49.346;8.798;2022-12-18T04:18:40;12.77;;;10.88;;
74941;SDS011;63506;49.346;8.798;2022-12-18T04:21:08;11.57;;;9.05;;
74941;SDS011;63506;49.346;8.798;2022-12-18T04:23:37;12.27;;;9.18;;
74941;SDS011;63506;49.346;8.798;2022-12-18T04:26:04;10.63;;;8.70;;
74941;SDS011;63506;49.346;8.798;2022-12-18T04:28:40;10.93;;;9.60;;
74941;SDS011;63506;49.346;8.798;2022-12-18T04:31:06;10.85;;;9.75;;
74941;SDS011;63506;49.346;8.798;2022-12-18T04:33:35;9.68;;;8.60;;
74941;SDS011;63506;49.346;8.798;2022-12-18T04:36:04;10.55;;;8.98;;
74941;SDS011;63506;49.346;8.798;2022-12-18T04:38:30;10.52;;;9.52;;
74941;SDS011;63506;49.346;8.798;2022-12-18T04:41:05;10.13;;;8.95;;
74941;SDS011;63506;49.346;8.798;2022-12-18T04:43:31;13.05;;;9.82;;
74941;SDS011;63506;49.346;8.798;2022-12-18T04:46:05;12.65;;;9.32;;
74941;SDS011;63506;49.346;8.798;2022-12-18T04:48:33;13.57;;;9.18;;
74941;SDS011;63506;49.346;8.798;2022-12-18T04:51:01;12.57;;;9.77;;
74941;SDS011;63506;49.346;8.798;2022-12-18T04:53:27;10.63;;;8.20;;
74941;SDS011;63506;49.346;8.798;2022-12-18T04:56:03;10.77;;;8.80;;
74941;SDS011;63506;49.346;8.798;2022-12-18T04:58:30;10.70;;;9.57;;
74941;SDS011;63506;49.346;8.798;2022-12-18T05:00:57;9.88;;;8.02;;
74941;SDS011;63506;49.346;8.798;2022-12-18T05:03:23;12.65;;;10.00;;
74941;SDS011;63506;49.346;8.798;2022-12-18T05:05:50;10.90;;;9.40;;
74941;SDS011;63506;49.346;8.798;2022-12-18T05:08:17;12.10;;;9.40;;
74941;SDS011;63506;49.346;8.798;2022-12-18T05:10:43;10.93;;;9.68;;
74941;SDS011;63506;49.346;8.798;2022-12-18T05:13:11;12.13;;;8.38;;
74941;SDS011;63506;49.346;8.798;2022-12-18T05:15:38;11.43;;;9.07;;
74941;SDS011;63506;49.346;8.798;2022-12-18T05:18:04;13.68;;;9.77;;
74941;SDS011;63506;49.346;8.798;2022-12-18T05:20:30;11.73;;;8.95;;
74941;SDS011;63506;49.346;8.798;2022-12-18T05:22:57;9.77;;;7.93;;
74941;SDS011;63506;49.346;8.798;2022-12-18T05:25:25;10.98;;;9.65;;
74941;SDS011;63506;49.346;8.798;2022-12-18T05:27:51;7.88;;;6.93;;
74941;SDS011;63506;49.346;8.798;2022-12-18T05:30:17;10.85;;;8.63;;
74941;SDS011;63506;49.346;8.798;2022-12-18T05:32:44;12.40;;;9.10;;
74941;SDS011;63506;49.346;8.798;2022-12-18T05:35:10;10.30;;;8.60;;
74941;SDS011;63506;49.346;8.798;2022-12-18T05:37:39;11.65;;;8.93;;
74941;SDS011;63506;49.346;8.798;2022-12-18T05:40:05;9.88;;;7.63;;
74941;SDS011;63506;49.346;8.798;2022-12-18T05:42:32;12.15;;;8.32;;
74941;SDS011;63506;49.346;8.798;2022-12-18T05:44:58;11.65;;;8.38;;
74941;SDS011;63506;49.346;8.798;2022-12-18T05:47:26;11.20;;;9.63;;
74941;SDS011;63506;49.346;8.798;2022-12-18T05:49:53;11.07;;;9.73;;
74941;SDS011;63506;49.346;8.798;2022-12-18T05:52:19;11.77;;;9.50;;
74941;SDS011;63506;49.346;8.798;2022-12-18T05:54:45;11.57;;;8.50;;
74941;SDS011;63506;49.346;8.798;2022-12-18T05:57:11;10.93;;;9.38;;
74941;SDS011;63506;49.346;8.798;2022-12-18T05:59:38;12.27;;;8.15;;
74941;SDS011;63506;49.346;8.798;2022-12-18T06:02:04;10.38;;;9.07;;
74941;SDS011;63506;49.346;8.798;2022-12-18T06:04:33;8.98;;;7.40;;
74941;SDS011;63506;49.346;8.798;2022-12-18T06:06:59;9.38;;;7.75;;
74941;SDS011;63506;49.346;8.798;2022-12-18T06:09:31;10.65;;;8.43;;
74941;SDS011;63506;49.346;8.798;2022-12-18T06:11:58;10.52;;;9.23;;
74941;SDS011;63506;49.346;8.798;2022-12-18T06:14:25;9.55;;;7.53;;
74941;SDS011;63506;49.346;8.798;2022-12-18T06:16:51;9.38;;;8.27;;
74941;SDS011;63506;49.346;8.798;2022-12-18T06:19:18;11.45;;;8.45;;
74941;SDS011;63506;49.346;8.798;2022-12-18T06:21:46;10.32;;;8.20;;
74941;SDS011;63506;49.346;8.798;2022-12-18T06:24:12;9.93;;;8.05;;
74941;SDS011;63506;49.346;8.798;2022-12-18T06:26:39;11.73;;;8.88;;
74941;SDS011;63506;49.346;8.798;2022-12-18T06:29:07;11.98;;;7.65;;
74941;SDS011;63506;49.346;8.798;2022-12-18T06:31:33;11.40;;;9.02;;
74941;SDS011;63506;49.346;8.798;2022-12-18T06:34:01;10.32;;;8.18;;
74941;SDS011;63506;49.346;8.798;2022-12-18T06:36:28;11.27;;;9.13;;
74941;SDS011;63506;49.346;8.798;2022-12-18T06:38:55;10.90;;;8.63;;
74941;SDS011;63506;49.346;8.798;2022-12-18T06:41:22;10.07;;;8.80;;
74941;SDS011;63506;49.346;8.798;2022-12-18T06:43:50;11.50;;;9.10;;
74941;SDS011;63506;49.346;8.798;2022-12-18T06:46:20;10.23;;;8.63;;
74941;SDS011;63506;49.346;8.798;2022-12-18T06:48:49;10.85;;;8.60;;
74941;SDS011;63506;49.346;8.798;2022-12-18T06:51:17;10.73;;;8.20;;
74941;SDS011;63506;49.346;8.798;2022-12-18T06:53:46;10.18;;;9.23;;
74941;SDS011;63506;49.346;8.798;2022-12-18T06:56:13;11.02;;;8.55;;
74941;SDS011;63506;49.346;8.798;2022-12-18T06:58:39;11.73;;;9.38;;
74941;SDS011;63506;49.346;8.798;2022-12-18T07:01:08;10.80;;;8.88;;
74941;SDS011;63506;49.346;8.798;2022-12-18T07:03:39;10.95;;;9.07;;
74941;SDS011;63506;49.346;8.798;2022-12-18T07:06:06;9.10;;;8.07;;
74941;SDS011;63506;49.346;8.798;2022-12-18T07:08:38;11.23;;;8.73;;
74941;SDS011;63506;49.346;8.798;2022-12-18T07:11:04;11.55;;;8.70;;
74941;SDS011;63506;49.346;8.798;2022-12-18T07:13:31;10.63;;;8.68;;
74941;SDS011;63506;49.346;8.798;2022-12-18T07:16:31;12.63;;;8.18;;
74941;SDS011;63506;49.346;8.798;2022-12-18T07:18:50;12.75;;;10.07;;
74941;SDS011;63506;49.346;8.798;2022-12-18T07:21:17;14.95;;;9.27;;
74941;SDS011;63506;49.346;8.798;2022-12-18T07:23:44;11.82;;;8.85;;
74941;SDS011;63506;49.346;8.798;2022-12-18T07:26:14;12.25;;;8.65;;
74941;SDS011;63506;49.346;8.798;2022-12-18T07:28:41;10.60;;;9.48;;
74941;SDS011;63506;49.346;8.798;2022-12-18T07:31:09;14.05;;;9.73;;
74941;SDS011;63506;49.346;8.798;2022-12-18T07:33:40;10.32;;;8.35;;
74941;SDS011;63506;49.346;8.798;2022-12-18T07:36:07;12.38;;;8.38;;
74941;SDS011;63506;49.346;8.798;2022-12-18T07:38:35;12.15;;;8.32;;
74941;SDS011;63506;49.346;8.798;2022-12-18T07:41:05;10.23;;;9.23;;
74941;SDS011;63506;49.346;8.798;2022-12-18T07:43:33;9.45;;;8.05;;
74941;SDS011;63506;49.346;8.798;2022-12-18T07:46:03;14.02;;;10.75;;
74941;SDS011;63506;49.346;8.798;2022-12-18T07:48:32;13.20;;;9.30;;
74941;SDS011;63506;49.346;8.798;2022-12-18T07:50:59;11.43;;;9.07;;
74941;SDS011;63506;49.346;8.798;2022-12-18T07:53:28;11.95;;;9.05;;
74941;SDS011;63506;49.346;8.798;2022-12-18T07:55:57;14.20;;;10.18;;
74941;SDS011;63506;49.346;8.798;2022-12-18T07:58:50;11.20;;;8.85;;
74941;SDS011;63506;49.346;8.798;2022-12-18T08:01:16;9.80;;;8.32;;
74941;SDS011;63506;49.346;8.798;2022-12-18T08:03:45;11.50;;;8.88;;
74941;SDS011;63506;49.346;8.798;2022-12-18T08:06:11;10.20;;;8.75;;
74941;SDS011;63506;49.346;8.798;2022-12-18T08:08:40;14.18;;;10.00;;
74941;SDS011;63506;49.346;8.798;2022-12-18T08:11:10;13.35;;;10.07;;
74941;SDS011;63506;49.346;8.798;2022-12-18T08:13:36;13.13;;;10.77;;
74941;SDS011;63506;49.346;8.798;2022-12-18T08:16:06;10.90;;;9.80;;
74941;SDS011;63506;49.346;8.798;2022-12-18T08:18:36;12.02;;;10.07;;
74941;SDS011;63506;49.346;8.798;2022-12-18T08:23:36;11.05;;;9.25;;
74941;SDS011;63506;49.346;8.798;2022-12-18T08:26:03;11.90;;;9.23;;
74941;SDS011;63506;49.346;8.798;2022-12-18T08:28:31;13.60;;;8.75;;
74941;SDS011;63506;49.346;8.798;2022-12-18T08:30:58;12.35;;;9.68;;
74941;SDS011;63506;49.346;8.798;2022-12-18T08:33:24;11.82;;;8.25;;
74941;SDS011;63506;49.346;8.798;2022-12-18T08:35:52;12.13;;;9.50;;
74941;SDS011;63506;49.346;8.798;2022-12-18T08:38:18;13.07;;;8.98;;
74941;SDS011;63506;49.346;8.798;2022-12-18T08:40:44;14.05;;;9.88;;
74941;SDS011;63506;49.346;8.798;2022-12-18T08:43:11;11.90;;;9.30;;
74941;SDS011;63506;49.346;8.798;2022-12-18T08:45:56;11.98;;;10.63;;
74941;SDS011;63506;49.346;8.798;2022-12-18T08:48:22;14.05;;;9.80;;
74941;SDS011;63506;49.346;8.798;2022-12-18T08:50:57;12.75;;;9.45;;
74941;SDS011;63506;49.346;8.798;2022-12-18T08:53:25;11.65;;;9.27;;
74941;SDS011;63506;49.346;8.798;2022-12-18T08:55:55;11.25;;;8.95;;
74941;SDS011;63506;49.346;8.798;2022-12-18T08:58:22;10.82;;;9.57;;
74941;SDS011;63506;49.346;8.798;2022-12-18T09:00:51;10.60;;;8.55;;
74941;SDS011;63506;49.346;8.798;2022-12-18T09:03:18;10.80;;;8.95;;
74941;SDS011;63506;49.346;8.798;2022-12-18T09:05:45;12.30;;;9.20;;
74941;SDS011;63506;49.346;8.798;2022-12-18T09:08:15;10.88;;;9.48;;
74941;SDS011;63506;49.346;8.798;2022-12-18T09:10:42;12.02;;;9.57;;
74941;SDS011;63506;49.346;8.798;2022-12-18T09:13:14;12.10;;;9.23;;
74941;SDS011;63506;49.346;8.798;2022-12-18T09:15:41;9.50;;;8.35;;
74941;SDS011;63506;49.346;8.798;2022-12-18T09:18:12;14.63;;;9.10;;
74941;SDS011;63506;49.346;8.798;2022-12-18T09:20:40;12.57;;;8.60;;
74941;SDS011;63506;49.346;8.798;2022-12-18T09:23:07;11.05;;;8.65;;
74941;SDS011;63506;49.346;8.798;2022-12-18T09:25:33;12.63;;;8.68;;
74941;SDS011;63506;49.346;8.798;2022-12-18T09:28:02;14.77;;;10.95;;
74941;SDS011;63506;49.346;8.798;2022-12-18T09:30:29;15.07;;;9.35;;
74941;SDS011;63506;49.346;8.798;2022-12-18T09:32:56;12.38;;;8.93;;
74941;SDS011;63506;49.346;8.798;2022-12-18T09:35:27;11.98;;;9.40;;
74941;SDS011;63506;49.346;8.798;2022-12-18T09:37:53;12.40;;;9.60;;
74941;SDS011;63506;49.346;8.798;2022-12-18T09:40:21;10.27;;;7.60;;
74941;SDS011;63506;49.346;8.798;2022-12-18T09:42:59;11.52;;;9.20;;
74941;SDS011;63506;49.346;8.798;2022-12-18T09:45:30;11.63;;;9.23;;
74941;SDS011;63506;49.346;8.798;2022-12-18T09:48:09;12.30;;;9.38;;
74941;SDS011;63506;49.346;8.798;2022-12-18T09:50:50;8.68;;;7.82;;
74941;SDS011;63506;49.346;8.798;2022-12-18T09:53:19;10.82;;;9.10;;
74941;SDS011;63506;49.346;8.798;2022-12-18T09:55:58;10.55;;;9.30;;
74941;SDS011;63506;49.346;8.798;2022-12-18T09:58:31;11.55;;;8.27;;
74941;SDS011;63506;49.346;8.798;2022-12-18T10:01:12;8.48;;;7.70;;
74941;SDS011;63506;49.346;8.798;2022-12-18T10:03:48;11.63;;;9.30;;
74941;SDS011;63506;49.346;8.798;2022-12-18T10:08:46;12.02;;;8.43;;
74941;SDS011;63506;49.346;8.798;2022-12-18T10:14:17;14.93;;;9.70;;
74941;SDS011;63506;49.346;8.798;2022-12-18T10:16:53;12.20;;;8.45;;
74941;SDS011;63506;49.346;8.798;2022-12-18T10:27:32;10.40;;;8.95;;
74941;SDS011;63506;49.346;8.798;2022-12-18T10:30:04;10.05;;;8.15;;
74941;SDS011;63506;49.346;8.798;2022-12-18T10:32:38;11.73;;;8.93;;
74941;SDS011;63506;49.346;8.798;2022-12-18T10:35:08;12.60;;;8.23;;
74941;SDS011;63506;49.346;8.798;2022-12-18T10:40:54;11.10;;;9.68;;
74941;SDS011;63506;49.346;8.798;2022-12-18T10:43:35;9.70;;;8.20;;
74941;SDS011;63506;49.346;8.798;2022-12-18T10:48:31;10.75;;;8.05;;
74941;SDS011;63506;49.346;8.798;2022-12-18T10:50:59;9.25;;;6.90;;
74941;SDS011;63506;49.346;8.798;2022-12-18T10:53:26;10.98;;;8.68;;
74941;SDS011;63506;49.346;8.798;2022-12-18T10:55:55;14.73;;;8.85;;
74941;SDS011;63506;49.346;8.798;2022-12-18T10:58:32;10.85;;;7.90;;
74941;SDS011;63506;49.346;8.798;2022-12-18T11:03:34;14.25;;;8.25;;
74941;SDS011;63506;49.346;8.798;2022-12-18T11:06:09;10.70;;;8.45;;
74941;SDS011;63506;49.346;8.798;2022-12-18T11:08:43;10.13;;;7.03;;
74941;SDS011;63506;49.346;8.798;2022-12-18T11:11:24;10.88;;;8.38;;
74941;SDS011;63506;49.346;8.798;2022-12-18T11:14:06;12.43;;;9.02;;
74941;SDS011;63506;49.346;8.798;2022-12-18T11:16:48;13.02;;;8.02;;
74941;SDS011;63506;49.346;8.798;2022-12-18T11:19:32;11.18;;;9.23;;
74941;SDS011;63506;49.346;8.798;2022-12-18T11:22:18;13.30;;;7.75;;
74941;SDS011;63506;49.346;8.798;2022-12-18T11:24:51;12.27;;;8.75;;
74941;SDS011;63506;49.346;8.798;2022-12-18T11:27:20;10.25;;;7.68;;
74941;SDS011;63506;49.346;8.798;2022-12-18T11:29:46;11.32;;;9.27;;
74941;SDS011;63506;49.346;8.798;2022-12-18T11:32:35;11.07;;;8.77;;
74941;SDS011;63506;49.346;8.798;2022-12-18T11:37:45;13.70;;;9.10;;
74941;SDS011;63506;49.346;8.798;2022-12-18T11:40:20;11.88;;;9.57;;
74941;SDS011;63506;49.346;8.798;2022-12-18T11:45:41;11.40;;;8.38;;
74941;SDS011;63506;49.346;8.798;2022-12-18T11:50:54;9.60;;;7.57;;
74941;SDS011;63506;49.346;8.798;2022-12-18T11:53:26;8.30;;;7.05;;
74941;SDS011;63506;49.346;8.798;2022-12-18T11:55:59;11.43;;;8.80;;
74941;SDS011;63506;49.346;8.798;2022-12-18T12:01:20;11.02;;;8.80;;
74941;SDS011;63506;49.346;8.798;2022-12-18T12:15:03;9.82;;;8.50;;
74941;SDS011;63506;49.346;8.798;2022-12-18T12:31:18;12.80;;;9.05;;
74941;SDS011;63506;49.346;8.798;2022-12-18T12:39:11;10.45;;;8.38;;
74941;SDS011;63506;49.346;8.798;2022-12-18T12:41:44;11.80;;;7.20;;
74941;SDS011;63506;49.346;8.798;2022-12-18T12:44:35;14.52;;;8.55;;
74941;SDS011;63506;49.346;8.798;2022-12-18T12:47:10;11.13;;;8.50;;
74941;SDS011;63506;49.346;8.798;2022-12-18T12:49:45;10.75;;;7.80;;
74941;SDS011;63506;49.346;8.798;2022-12-18T12:54:46;11.10;;;9.02;;
74941;SDS011;63506;49.346;8.798;2022-12-18T12:57:16;9.63;;;7.35;;
74941;SDS011;63506;49.346;8.798;2022-12-18T13:05:21;9.70;;;7.55;;
74941;SDS011;63506;49.346;8.798;2022-12-18T13:07:53;10.40;;;8.40;;
74941;SDS011;63506;49.346;8.798;2022-12-18T13:10:31;8.45;;;7.50;;
74941;SDS011;63506;49.346;8.798;2022-12-18T13:13:08;9.88;;;8.43;;
74941;SDS011;63506;49.346;8.798;2022-12-18T13:20:36;9.85;;;8.35;;
74941;SDS011;63506;49.346;8.798;2022-12-18T13:25:51;12.75;;;8.48;;
74941;SDS011;63506;49.346;8.798;2022-12-18T13:34:24;15.38;;;9.15;;
74941;SDS011;63506;49.346;8.798;2022-12-18T13:36:53;10.57;;;7.97;;
74941;SDS011;63506;49.346;8.798;2022-12-18T13:39:24;9.90;;;7.82;;
74941;SDS011;63506;49.346;8.798;2022-12-18T13:44:33;10.60;;;8.32;;
74941;SDS011;63506;49.346;8.798;2022-12-18T13:47:01;11.32;;;7.68;;
74941;SDS011;63506;49.346;8.798;2022-12-18T13:52:01;11.35;;;8.23;;
74941;SDS011;63506;49.346;8.798;2022-12-18T13:54:35;10.27;;;7.45;;
74941;SDS011;63506;49.346;8.798;2022-12-18T13:57:25;11.05;;;8.10;;
74941;SDS011;63506;49.346;8.798;2022-12-18T13:59:53;10.73;;;7.65;;
74941;SDS011;63506;49.346;8.798;2022-12-18T14:02:26;8.02;;;7.00;;
74941;SDS011;63506;49.346;8.798;2022-12-18T14:04:54;9.60;;;7.40;;
74941;SDS011;63506;49.346;8.798;2022-12-18T14:07:21;10.48;;;8.05;;
74941;SDS011;63506;49.346;8.798;2022-12-18T14:09:52;10.60;;;7.38;;
74941;SDS011;63506;49.346;8.798;2022-12-18T14:12:29;9.77;;;6.93;;
74941;SDS011;63506;49.346;8.798;2022-12-18T14:20:56;10.52;;;6.53;;
74941;SDS011;63506;49.346;8.798;2022-12-18T14:26:19;8.65;;;7.70;;
74941;SDS011;63506;49.346;8.798;2022-12-18T14:28:55;7.93;;;6.32;;
74941;SDS011;63506;49.346;8.798;2022-12-18T14:31:23;10.70;;;8.68;;
74941;SDS011;63506;49.346;8.798;2022-12-18T14:33:51;11.20;;;7.95;;
74941;SDS011;63506;49.346;8.798;2022-12-18T14:36:25;8.18;;;6.85;;
74941;SDS011;63506;49.346;8.798;2022-12-18T14:38:57;8.70;;;7.75;;
74941;SDS011;63506;49.346;8.798;2022-12-18T14:41:24;9.68;;;8.60;;
74941;SDS011;63506;49.346;8.798;2022-12-18T14:43:52;10.85;;;7.47;;
74941;SDS011;63506;49.346;8.798;2022-12-18T14:48:58;10.43;;;8.00;;
74941;SDS011;63506;49.346;8.798;2022-12-18T14:51:30;9.13;;;7.43;;
74941;SDS011;63506;49.346;8.798;2022-12-18T14:53:59;10.60;;;7.40;;
74941;SDS011;63506;49.346;8.798;2022-12-18T14:58:55;12.10;;;7.43;;
74941;SDS011;63506;49.346;8.798;2022-12-18T15:01:25;15.05;;;8.23;;
74941;SDS011;63506;49.346;8.798;2022-12-18T15:03:54;11.13;;;7.80;;
74941;SDS011;63506;49.346;8.798;2022-12-18T15:06:29;11.85;;;8.63;;
74941;SDS011;63506;49.346;8.798;2022-12-18T15:09:24;9.63;;;7.60;;
74941;SDS011;63506;49.346;8.798;2022-12-18T15:11:56;9.02;;;6.85;;
74941;SDS011;63506;49.346;8.798;2022-12-18T15:16:56;10.27;;;7.90;;
74941;SDS011;63506;49.346;8.798;2022-12-18T15:19:26;9.18;;;7.07;;
74941;SDS011;63506;49.346;8.798;2022-12-18T15:22:01;9.30;;;7.53;;
74941;SDS011;63506;49.346;8.798;2022-12-18T15:24:29;8.82;;;6.68;;
74941;SDS011;63506;49.346;8.798;2022-12-18T15:26:57;11.10;;;7.75;;
74941;SDS011;63506;49.346;8.798;2022-12-18T15:29:27;11.07;;;8.93;;
74941;SDS011;63506;49.346;8.798;2022-12-18T15:32:04;9.60;;;7.25;;
74941;SDS011;63506;49.346;8.798;2022-12-18T15:34:45;8.38;;;6.85;;
74941;SDS011;63506;49.346;8.798;2022-12-18T15:37:11;11.13;;;7.28;;
74941;SDS011;63506;49.346;8.798;2022-12-18T15:39:37;12.73;;;7.85;;
74941;SDS011;63506;49.346;8.798;2022-12-18T15:42:03;8.82;;;6.93;;
74941;SDS011;63506;49.346;8.798;2022-12-18T15:44:48;10.95;;;8.25;;
74941;SDS011;63506;49.346;8.798;2022-12-18T15:47:14;11.77;;;7.90;;
74941;SDS011;63506;49.346;8.798;2022-12-18T15:49:41;9.38;;;7.05;;
74941;SDS011;63506;49.346;8.798;2022-12-18T15:52:07;10.65;;;7.72;;
74941;SDS011;63506;49.346;8.798;2022-12-18T15:54:37;8.27;;;6.28;;
74941;SDS011;63506;49.346;8.798;2022-12-18T15:57:22;10.73;;;8.00;;
74941;SDS011;63506;49.346;8.798;2022-12-18T15:59:49;10.93;;;7.35;;
74941;SDS011;63506;49.346;8.798;2022-12-18T16:02:16;10.75;;;7.55;;
74941;SDS011;63506;49.346;8.798;2022-12-18T16:04:43;10.35;;;8.00;;
74941;SDS011;63506;49.346;8.798;2022-12-18T16:07:11;9.40;;;7.28;;
74941;SDS011;63506;49.346;8.798;2022-12-18T16:09:38;9.27;;;7.50;;
74941;SDS011;63506;49.346;8.798;2022-12-18T16:12:05;9.55;;;7.38;;
74941;SDS011;63506;49.346;8.798;2022-12-18T16:14:36;9.65;;;7.25;;
74941;SDS011;63506;49.346;8.798;2022-12-18T16:17:05;8.55;;;7.43;;
74941;SDS011;63506;49.346;8.798;2022-12-18T16:19:34;8.85;;;7.85;;
74941;SDS011;63506;49.346;8.798;2022-12-18T16:22:04;10.52;;;7.28;;
74941;SDS011;63506;49.346;8.798;2022-12-18T16:24:31;10.45;;;8.50;;
74941;SDS011;63506;49.346;8.798;2022-12-18T16:27:02;9.75;;;7.63;;
74941;SDS011;63506;49.346;8.798;2022-12-18T16:29:29;10.27;;;6.85;;
74941;SDS011;63506;49.346;8.798;2022-12-18T16:31:56;12.48;;;7.60;;
74941;SDS011;63506;49.346;8.798;2022-12-18T16:34:27;13.50;;;8.45;;
74941;SDS011;63506;49.346;8.798;2022-12-18T16:36:58;9.52;;;7.35;;
74941;SDS011;63506;49.346;8.798;2022-12-18T16:39:29;12.57;;;8.10;;
74941;SDS011;63506;49.346;8.798;2022-12-18T16:42:00;9.88;;;6.88;;
74941;SDS011;63506;49.346;8.798;2022-12-18T16:44:27;8.95;;;7.45;;
74941;SDS011;63506;49.346;8.798;2022-12-18T16:46:53;11.80;;;8.48;;
74941;SDS011;63506;49.346;8.798;2022-12-18T16:49:24;13.40;;;8.63;;
74941;SDS011;63506;49.346;8.798;2022-12-18T16:51:51;10.85;;;8.05;;
74941;SDS011;63506;49.346;8.798;2022-12-18T16:54:19;11.05;;;7.43;;
74941;SDS011;63506;49.346;8.798;2022-12-18T16:56:46;10.52;;;8.27;;
74941;SDS011;63506;49.346;8.798;2022-12-18T16:59:14;11.73;;;7.05;;
74941;SDS011;63506;49.346;8.798;2022-12-18T17:01:40;11.20;;;8.45;;
74941;SDS011;63506;49.346;8.798;2022-12-18T17:04:07;10.75;;;6.95;;
74941;SDS011;63506;49.346;8.798;2022-12-18T17:06:41;10.02;;;7.60;;
74941;SDS011;63506;49.346;8.798;2022-12-18T17:09:13;12.13;;;7.20;;
74941;SDS011;63506;49.346;8.798;2022-12-18T17:11:43;11.45;;;7.20;;